Ewtrford, Pennsylvania
Current Conditions -  °F | °C
As of 9:53 AM on Monday 22 Dec 2014 (Local Time) from KAOO Reporting Station
Overcast Overcast  
Wind Chill: 27°   Ceiling: 2300
Heat Index: 27°   Visibility: 7mi
Dew Point: 23°   Wind: 3mph
Humidity: 85%   Direction: 110°ESE
Pressure: 30.22"   Gusts: NA
Location:  40.3617°N, 77.6745°W
Report Text: KAOO 221453Z AUTO 11003KT 7SM OVC023 M03/M05 A3022 RMK AO2 SLP254 T10281050 51004
Loading
Personal Weather Stations






























Interactive Weather Map New forecast layout! Learn more

10-Day Weather Forecast

Advertisements
Track Severe Weather on mobile